createdAt,value
2017-12-22T11:57:08.940Z,44.22
2017-12-22T11:58:08.946Z,43.26
2017-12-22T11:59:08.964Z,42.27
2017-12-22T12:00:08.981Z,42.27
2017-12-22T12:01:09.002Z,42.36
2017-12-22T12:02:09.079Z,42.44
2017-12-22T12:03:09.045Z,42.25
2017-12-22T12:04:09.119Z,42.73
2017-12-22T12:05:09.096Z,42.71
2017-12-22T12:06:09.112Z,43.38
2017-12-22T12:07:09.133Z,43.10
2017-12-22T12:08:09.155Z,43.00
2017-12-22T12:09:09.177Z,43.67
2017-12-22T12:10:09.199Z,43.38
2017-12-22T12:11:09.226Z,43.58
2017-12-22T12:12:09.242Z,43.75
2017-12-22T12:13:09.267Z,43.85
2017-12-22T12:14:09.287Z,43.94
2017-12-22T12:15:09.311Z,43.94
2017-12-22T12:16:09.332Z,44.32
2017-12-22T12:17:09.364Z,44.71
2017-12-22T12:18:09.378Z,44.71
2017-12-22T12:19:09.403Z,44.52
2017-12-22T12:20:09.425Z,44.42
2017-12-22T12:21:09.448Z,44.62
2017-12-22T12:22:09.469Z,44.71
2017-12-22T12:23:09.492Z,44.71
2017-12-22T12:24:09.818Z,44.81
2017-12-22T12:25:09.538Z,45.00
2017-12-22T12:26:09.644Z,44.90
2017-12-22T12:27:09.585Z,45.10
2017-12-22T12:28:09.605Z,45.10
2017-12-22T12:29:09.645Z,45.12
2017-12-22T12:30:09.699Z,45.31
2017-12-22T12:31:09.678Z,45.29
2017-12-22T12:32:09.732Z,45.29
2017-12-22T12:33:09.733Z,45.51
2017-12-22T12:34:09.777Z,45.31
2017-12-22T12:35:09.768Z,45.60
2017-12-22T12:36:09.808Z,45.21
2017-12-22T12:37:09.848Z,45.31
2017-12-22T12:38:09.889Z,45.41
2017-12-22T12:39:09.858Z,45.12
2017-12-22T12:40:09.933Z,45.31
2017-12-22T12:41:09.903Z,45.41
2017-12-22T12:42:09.932Z,45.60
2017-12-22T12:43:09.953Z,45.41
2017-12-22T12:44:09.972Z,45.21
